Alma, Mississippi
Current Conditions -  °F | °C
As of 3:53 AM on Monday 26 Jan 2015 (Local Time) from KTUP Reporting Station
Overcast Overcast  
Wind Chill: 35°   Ceiling: 1600
Heat Index: 42°   Visibility: 10mi
Dew Point: 35°   Wind: 13mph
Humidity: 76%   Direction: 10°N
Pressure: 29.96"   Gusts: NA
Location:  34.433°N, 88.7018°W
Report Text: KTUP 260953Z AUTO 01011KT 10SM OVC016 06/02 A2996 RMK AO2 SLP146 T00560017
Loading
Personal Weather Stations






























Interactive Weather Map New forecast layout! Learn more

10-Day Weather Forecast

Advertisements
Track Severe Weather on mobile